createdAt,value
2023-04-25T00:01:26.578Z,1.63
2023-04-25T00:03:57.090Z,1.50
2023-04-25T00:06:29.296Z,1.83
2023-04-25T00:08:56.759Z,1.70
2023-04-25T00:11:24.127Z,1.40
2023-04-25T00:13:54.084Z,1.30
2023-04-25T00:16:20.901Z,1.17
2023-04-25T00:18:52.273Z,1.48
2023-04-25T00:21:22.557Z,1.50
2023-04-25T00:23:49.444Z,1.60
2023-04-25T00:26:16.135Z,1.50
2023-04-25T00:28:42.778Z,1.23
2023-04-25T00:31:09.415Z,1.58
2023-04-25T00:33:35.917Z,1.13
2023-04-25T00:36:02.619Z,1.55
2023-04-25T00:38:29.104Z,1.13
2023-04-25T00:40:56.750Z,1.40
2023-04-25T00:43:25.455Z,1.20
2023-04-25T00:45:53.196Z,1.17
2023-04-25T00:48:21.108Z,1.40
2023-04-25T00:50:55.162Z,1.20
2023-04-25T00:53:26.525Z,1.20
2023-04-25T00:55:53.757Z,1.27
2023-04-25T00:58:23.455Z,1.30
2023-04-25T01:00:53.175Z,1.30
2023-04-25T01:03:23.083Z,1.10
2023-04-25T01:05:51.705Z,1.45
2023-04-25T01:08:18.260Z,1.13
2023-04-25T01:10:45.114Z,1.40
2023-04-25T01:13:11.956Z,1.13
2023-04-25T01:15:38.540Z,1.40
2023-04-25T01:18:06.460Z,1.20
2023-04-25T01:20:38.332Z,1.30
2023-04-25T01:23:05.028Z,1.38
2023-04-25T01:25:32.438Z,1.48
2023-04-25T01:28:01.568Z,1.70
2023-04-25T01:30:28.405Z,1.50
2023-04-25T01:33:03.849Z,1.35
2023-04-25T01:35:30.950Z,1.38
2023-04-25T01:37:57.437Z,1.38
2023-04-25T01:40:25.833Z,1.38
2023-04-25T01:42:55.026Z,1.20
2023-04-25T01:45:21.843Z,1.30
2023-04-25T01:47:52.374Z,1.50
2023-04-25T01:50:20.105Z,1.30
2023-04-25T01:52:49.074Z,1.10
2023-04-25T01:55:16.004Z,1.30
2023-04-25T01:57:42.713Z,1.38
2023-04-25T02:00:10.192Z,1.38
2023-04-25T02:02:39.671Z,1.50
2023-04-25T02:05:07.025Z,1.88
2023-04-25T02:07:33.775Z,1.42
2023-04-25T02:10:02.285Z,1.23
2023-04-25T02:12:29.211Z,1.55
2023-04-25T02:14:58.134Z,1.40
2023-04-25T02:17:26.455Z,1.70
2023-04-25T02:19:53.063Z,1.30
2023-04-25T02:22:19.648Z,1.60
2023-04-25T02:24:52.758Z,1.52
2023-04-25T02:27:19.270Z,1.40
2023-04-25T02:29:46.013Z,1.40
2023-04-25T02:32:14.253Z,1.88
2023-04-25T02:34:40.714Z,1.70
2023-04-25T02:37:07.389Z,2.03
2023-04-25T02:39:38.403Z,2.00
2023-04-25T02:42:04.945Z,1.83
2023-04-25T02:44:31.476Z,1.88
2023-04-25T02:47:03.211Z,1.90
2023-04-25T02:49:29.787Z,1.90
2023-04-25T02:51:56.460Z,2.05
2023-04-25T02:54:27.563Z,1.80
2023-04-25T02:56:54.350Z,2.33
2023-04-25T02:59:20.862Z,2.03
2023-04-25T03:01:47.615Z,2.30
2023-04-25T03:04:14.264Z,2.42
2023-04-25T03:06:40.818Z,1.80
2023-04-25T03:09:11.872Z,1.83
2023-04-25T03:11:40.063Z,2.63
2023-04-25T03:14:06.566Z,2.90
2023-04-25T03:16:35.269Z,2.67
2023-04-25T03:19:01.882Z,2.60
2023-04-25T03:21:28.728Z,3.03
2023-04-25T03:23:55.324Z,2.55
2023-04-25T03:26:21.782Z,2.70
2023-04-25T03:28:51.689Z,2.58
2023-04-25T03:31:18.288Z,2.88
2023-04-25T03:33:44.824Z,3.08
2023-04-25T03:36:11.338Z,2.40
2023-04-25T03:38:39.628Z,2.15
2023-04-25T03:41:06.126Z,2.42
2023-04-25T03:43:32.670Z,2.45
2023-04-25T03:46:05.618Z,2.38
2023-04-25T03:48:32.149Z,2.25
2023-04-25T03:50:58.654Z,2.50
2023-04-25T03:53:25.640Z,2.63
2023-04-25T03:55:52.812Z,2.22
2023-04-25T03:58:19.539Z,2.58
2023-04-25T04:00:47.872Z,2.42
2023-04-25T04:03:20.170Z,2.35
2023-04-25T04:05:47.576Z,2.00
2023-04-25T04:08:16.109Z,2.65
2023-04-25T04:10:42.585Z,2.00
2023-04-25T04:13:09.055Z,2.50
2023-04-25T04:15:37.327Z,2.13
2023-04-25T04:18:04.295Z,2.20
2023-04-25T04:20:34.239Z,2.03
2023-04-25T04:23:02.982Z,2.30
2023-04-25T04:25:29.597Z,2.35
2023-04-25T04:27:56.101Z,2.10
2023-04-25T04:30:31.795Z,2.50
2023-04-25T04:35:25.767Z,2.15
2023-04-25T04:37:52.431Z,2.00
2023-04-25T04:40:19.070Z,1.95
2023-04-25T04:42:49.110Z,2.00
2023-04-25T04:45:17.621Z,2.20
2023-04-25T04:47:44.199Z,2.22
2023-04-25T04:50:11.450Z,2.10
2023-04-25T04:52:41.384Z,2.65
2023-04-25T04:55:10.296Z,2.30
2023-04-25T04:57:36.911Z,2.00
2023-04-25T05:00:06.316Z,2.17
2023-04-25T05:02:32.845Z,3.05
2023-04-25T05:04:59.660Z,2.70
2023-04-25T05:07:28.452Z,2.40
2023-04-25T05:09:54.901Z,2.25
2023-04-25T05:12:21.428Z,2.80
2023-04-25T05:14:49.706Z,4.25
2023-04-25T05:17:20.616Z,3.85
2023-04-25T05:19:47.156Z,2.95
2023-04-25T05:22:13.782Z,3.10
2023-04-25T05:24:40.664Z,2.58
2023-04-25T05:27:07.484Z,2.20
2023-04-25T05:29:36.170Z,2.15
2023-04-25T05:32:02.746Z,1.75
2023-04-25T05:34:29.303Z,1.80
2023-04-25T05:37:01.949Z,1.92
2023-04-25T05:39:28.476Z,1.67
2023-04-25T05:41:55.024Z,1.98
2023-04-25T05:44:22.274Z,1.80
2023-04-25T05:46:48.848Z,1.45
2023-04-25T05:49:19.408Z,1.10
2023-04-25T05:51:48.420Z,1.65
2023-04-25T05:54:15.019Z,1.50
2023-04-25T05:56:41.808Z,1.60
2023-04-25T05:59:16.304Z,1.30
2023-04-25T06:01:43.243Z,1.60
2023-04-25T06:04:10.038Z,1.52
2023-04-25T06:06:38.544Z,1.55
2023-04-25T06:09:06.729Z,1.63
2023-04-25T06:11:33.258Z,1.60
2023-04-25T06:13:59.927Z,1.50
2023-04-25T06:16:27.271Z,1.63
2023-04-25T06:18:53.946Z,1.85
2023-04-25T06:21:24.447Z,1.75
2023-04-25T06:23:51.142Z,1.48
2023-04-25T06:26:18.139Z,1.63
2023-04-25T06:28:44.850Z,1.70
2023-04-25T06:31:13.534Z,1.42
2023-04-25T06:33:40.120Z,1.90
2023-04-25T06:36:08.688Z,1.77
2023-04-25T06:38:35.900Z,1.60
2023-04-25T06:41:02.687Z,1.70
2023-04-25T06:43:31.432Z,2.00
2023-04-25T06:45:57.963Z,1.75
2023-04-25T06:48:24.402Z,1.67
2023-04-25T06:50:51.110Z,2.15
2023-04-25T06:53:17.896Z,1.90
2023-04-25T06:55:44.388Z,2.00
2023-04-25T06:58:18.987Z,1.83
2023-04-25T07:00:45.663Z,2.20
2023-04-25T07:03:12.393Z,2.13
2023-04-25T07:05:39.265Z,2.28
2023-04-25T07:08:06.082Z,2.17
2023-04-25T07:10:32.634Z,2.00
2023-04-25T07:13:07.507Z,1.80
2023-04-25T07:15:34.516Z,2.00
2023-04-25T07:18:01.216Z,1.75
2023-04-25T07:20:30.651Z,2.30
2023-04-25T07:22:57.201Z,2.35
2023-04-25T07:25:26.037Z,2.40
2023-04-25T07:27:54.350Z,2.22
2023-04-25T07:30:20.878Z,2.20
2023-04-25T07:32:47.494Z,2.70
2023-04-25T07:35:14.187Z,3.00
2023-04-25T07:37:40.927Z,3.03
2023-04-25T07:40:08.921Z,3.20
2023-04-25T07:42:35.876Z,3.17
2023-04-25T07:45:04.510Z,3.40
2023-04-25T07:47:31.212Z,3.88
2023-04-25T07:50:00.659Z,4.25
2023-04-25T07:52:27.186Z,4.63
2023-04-25T07:54:53.804Z,4.00
2023-04-25T07:57:23.437Z,3.53
2023-04-25T07:59:49.912Z,3.75
2023-04-25T08:02:16.610Z,3.22
2023-04-25T08:04:43.474Z,3.35
2023-04-25T08:07:14.122Z,3.55
2023-04-25T08:09:40.626Z,3.22
2023-04-25T08:12:07.286Z,3.72
2023-04-25T08:14:37.114Z,3.45
2023-04-25T08:17:04.743Z,3.08
2023-04-25T08:19:37.539Z,2.92
2023-04-25T08:22:04.226Z,3.03
2023-04-25T08:24:30.935Z,2.55
2023-04-25T08:26:59.548Z,2.55
2023-04-25T08:29:26.930Z,2.47
2023-04-25T08:31:54.058Z,1.95
2023-04-25T08:34:21.790Z,1.85
2023-04-25T08:36:48.345Z,1.95
2023-04-25T08:39:14.849Z,1.77
2023-04-25T08:41:42.725Z,2.10
2023-04-25T08:44:11.718Z,2.20
2023-04-25T08:46:42.322Z,1.98
2023-04-25T08:49:14.359Z,1.63
2023-04-25T08:51:51.580Z,1.73
2023-04-25T08:56:58.898Z,1.73
2023-04-25T08:59:31.869Z,1.73
2023-04-25T09:01:59.063Z,1.70
2023-04-25T09:04:28.175Z,1.90
2023-04-25T09:06:54.847Z,1.80
2023-04-25T09:09:21.652Z,1.77
2023-04-25T09:11:48.171Z,1.70
2023-04-25T09:14:23.317Z,1.67
2023-04-25T09:16:59.207Z,1.35
2023-04-25T09:19:42.718Z,1.67
2023-04-25T09:22:09.595Z,1.30
2023-04-25T09:24:45.334Z,1.60
2023-04-25T09:29:41.825Z,1.10
2023-04-25T09:32:25.694Z,1.38
2023-04-25T09:34:53.938Z,1.17
2023-04-25T09:37:22.785Z,1.70
2023-04-25T09:40:03.577Z,1.70
2023-04-25T09:42:32.873Z,1.60
2023-04-25T09:45:00.096Z,1.42
2023-04-25T09:47:28.052Z,1.40
2023-04-25T09:49:56.048Z,1.40
2023-04-25T09:52:25.878Z,1.15
2023-04-25T09:54:55.325Z,1.60
2023-04-25T09:57:27.738Z,1.33
2023-04-25T10:00:01.327Z,1.40
2023-04-25T10:02:28.473Z,1.23
2023-04-25T10:04:57.163Z,1.50
2023-04-25T10:07:31.902Z,1.30
2023-04-25T10:10:04.554Z,1.08
2023-04-25T10:12:32.383Z,1.20
2023-04-25T10:14:59.770Z,0.90
2023-04-25T10:17:28.909Z,1.33
2023-04-25T10:19:57.929Z,1.60
2023-04-25T10:22:34.013Z,1.45
2023-04-25T10:25:04.786Z,1.30
2023-04-25T10:27:32.202Z,1.13
2023-04-25T10:30:06.156Z,1.00
2023-04-25T10:32:40.648Z,1.30
2023-04-25T10:35:20.819Z,1.20
2023-04-25T10:38:07.105Z,1.00
2023-04-25T10:40:40.773Z,1.00
2023-04-25T10:43:32.476Z,0.90
2023-04-25T10:46:12.703Z,1.40
2023-04-25T10:48:46.461Z,0.95
2023-04-25T10:51:18.448Z,1.50
2023-04-25T10:53:47.165Z,1.40
2023-04-25T10:56:37.161Z,1.00
2023-04-25T10:59:07.954Z,1.23
2023-04-25T11:01:47.264Z,1.40
2023-04-25T11:04:24.389Z,1.02
2023-04-25T11:07:16.457Z,1.30
2023-04-25T11:09:42.978Z,1.20
2023-04-25T11:12:12.665Z,1.40
2023-04-25T11:17:12.979Z,1.13
2023-04-25T11:19:52.036Z,0.90
2023-04-25T11:22:19.252Z,1.33
2023-04-25T11:24:46.682Z,1.13
2023-04-25T11:27:15.173Z,1.13
2023-04-25T11:29:42.373Z,0.98
2023-04-25T11:32:09.196Z,1.02
2023-04-25T11:34:37.715Z,1.10
2023-04-25T11:37:05.390Z,1.05
2023-04-25T11:39:32.075Z,1.17
2023-04-25T11:41:59.078Z,1.40
2023-04-25T11:44:32.867Z,1.27
2023-04-25T11:46:59.696Z,1.17
2023-04-25T11:52:30.299Z,1.30
2023-04-25T11:54:58.004Z,1.15
2023-04-25T11:57:24.828Z,1.20
2023-04-25T11:59:51.616Z,1.00
2023-04-25T12:02:30.953Z,1.00
2023-04-25T12:05:11.820Z,0.93
2023-04-25T12:07:47.957Z,1.20
2023-04-25T12:10:16.532Z,1.27
2023-04-25T12:12:45.089Z,1.00
2023-04-25T12:15:20.495Z,1.00
2023-04-25T12:17:48.516Z,1.25
2023-04-25T12:20:17.479Z,1.20
2023-04-25T12:22:52.069Z,1.20
2023-04-25T12:25:39.242Z,1.20
2023-04-25T12:28:26.636Z,1.00
2023-04-25T12:31:05.446Z,1.17
2023-04-25T12:33:38.824Z,0.80
2023-04-25T12:36:09.945Z,0.90
2023-04-25T12:38:43.416Z,0.90
2023-04-25T12:41:10.316Z,1.27
2023-04-25T12:43:36.871Z,0.80
2023-04-25T12:46:04.374Z,1.00
2023-04-25T12:48:34.040Z,1.00
2023-04-25T12:51:02.859Z,0.98
2023-04-25T12:53:29.670Z,1.00
2023-04-25T12:55:57.051Z,0.82
2023-04-25T12:58:24.719Z,0.90
2023-04-25T13:00:51.503Z,0.90
2023-04-25T13:03:20.469Z,0.90
2023-04-25T13:05:47.359Z,0.90
2023-04-25T13:08:21.224Z,0.93
2023-04-25T13:13:17.547Z,1.00
2023-04-25T13:15:49.461Z,0.73
2023-04-25T13:18:16.275Z,0.80
2023-04-25T13:20:42.865Z,0.65
2023-04-25T13:23:20.503Z,0.70
2023-04-25T13:25:47.999Z,0.60
2023-04-25T13:28:15.124Z,0.65
2023-04-25T13:30:47.524Z,0.63
2023-04-25T13:33:14.044Z,0.80
2023-04-25T13:35:40.729Z,0.70
2023-04-25T13:38:07.547Z,0.80
2023-04-25T13:40:34.160Z,1.15
2023-04-25T13:43:03.180Z,1.08
2023-04-25T13:45:31.545Z,1.00
2023-04-25T13:47:59.489Z,0.80
2023-04-25T13:50:26.199Z,0.80
2023-04-25T13:52:54.650Z,0.85
2023-04-25T13:55:24.921Z,0.60
2023-04-25T13:57:51.512Z,0.50
2023-04-25T14:00:20.280Z,0.60
2023-04-25T14:02:48.163Z,0.47
2023-04-25T14:05:16.778Z,0.60
2023-04-25T14:07:47.781Z,0.38
2023-04-25T14:10:14.289Z,0.50
2023-04-25T14:12:41.145Z,0.52
2023-04-25T14:17:58.326Z,0.60
2023-04-25T14:20:27.428Z,0.40
2023-04-25T14:22:55.633Z,0.55
2023-04-25T14:25:22.493Z,0.30
2023-04-25T14:27:51.075Z,0.50
2023-04-25T14:30:19.188Z,0.50
2023-04-25T14:32:48.246Z,0.52
2023-04-25T14:35:14.768Z,0.40
2023-04-25T14:37:41.440Z,0.50
2023-04-25T14:40:14.266Z,0.40
2023-04-25T14:42:41.006Z,0.50
2023-04-25T14:45:09.626Z,0.70
2023-04-25T14:47:38.005Z,0.70
2023-04-25T14:50:05.692Z,0.50
2023-04-25T14:52:32.410Z,0.63
2023-04-25T14:55:01.299Z,0.50
2023-04-25T14:57:29.652Z,0.68
2023-04-25T14:59:56.381Z,0.60
2023-04-25T15:02:23.784Z,0.40
2023-04-25T15:04:52.521Z,0.57
2023-04-25T15:07:19.136Z,0.60
2023-04-25T15:09:45.979Z,0.82
2023-04-25T15:12:13.140Z,0.70
2023-04-25T15:14:39.761Z,0.80
2023-04-25T15:17:11.628Z,0.70
2023-04-25T15:19:38.302Z,0.57
2023-04-25T15:22:05.776Z,0.70
2023-04-25T15:24:32.591Z,0.70
2023-04-25T15:26:59.389Z,0.52
2023-04-25T15:29:27.199Z,1.00
2023-04-25T15:31:55.800Z,0.90
2023-04-25T15:34:22.574Z,1.05
2023-04-25T15:36:49.117Z,0.98
2023-04-25T15:39:15.695Z,1.23
2023-04-25T15:41:44.122Z,1.30
2023-04-25T15:44:11.284Z,1.35
2023-04-25T15:46:40.408Z,1.23
2023-04-25T15:49:07.088Z,2.03
2023-04-25T15:51:33.804Z,1.83
2023-04-25T15:54:04.354Z,1.40
2023-04-25T15:56:30.889Z,1.38
2023-04-25T15:58:57.388Z,1.50
2023-04-25T16:01:26.546Z,1.50
2023-04-25T16:03:53.589Z,1.50
2023-04-25T16:06:20.613Z,1.30
2023-04-25T16:08:47.425Z,1.20
2023-04-25T16:11:14.912Z,1.30
2023-04-25T16:13:41.590Z,1.40
2023-04-25T16:16:10.860Z,1.27
2023-04-25T16:18:37.723Z,1.50
2023-04-25T16:21:04.335Z,2.05
2023-04-25T16:23:31.611Z,1.52
2023-04-25T16:25:58.205Z,1.20
2023-04-25T16:28:25.978Z,1.65
2023-04-25T16:30:57.751Z,1.30
2023-04-25T16:33:24.322Z,1.15
2023-04-25T16:35:52.585Z,1.20
2023-04-25T16:38:19.573Z,1.38
2023-04-25T16:40:46.077Z,1.45
2023-04-25T16:43:14.594Z,1.27
2023-04-25T16:45:41.360Z,1.80
2023-04-25T16:48:07.946Z,1.40
2023-04-25T16:50:34.484Z,1.30
2023-04-25T16:53:05.533Z,1.25
2023-04-25T16:55:32.981Z,1.20
2023-04-25T16:58:01.897Z,1.30
2023-04-25T17:00:30.249Z,1.40
2023-04-25T17:02:58.909Z,1.42
2023-04-25T17:05:26.380Z,1.05
2023-04-25T17:07:54.913Z,0.93
2023-04-25T17:10:21.858Z,1.20
2023-04-25T17:12:48.476Z,1.20
2023-04-25T17:15:15.390Z,1.13
2023-04-25T17:17:42.096Z,1.13
2023-04-25T17:20:13.676Z,1.30
2023-04-25T17:22:46.412Z,0.90
2023-04-25T17:25:16.796Z,1.08
2023-04-25T17:27:43.371Z,1.10
2023-04-25T17:30:12.397Z,0.90
2023-04-25T17:32:38.958Z,0.80
2023-04-25T17:35:06.601Z,0.73
2023-04-25T17:37:33.955Z,0.90
2023-04-25T17:40:00.526Z,0.90
2023-04-25T17:42:28.129Z,0.70
2023-04-25T17:44:55.788Z,0.90
2023-04-25T17:47:23.424Z,0.77
2023-04-25T17:49:49.963Z,0.85
2023-04-25T17:52:16.749Z,0.90
2023-04-25T17:54:43.266Z,1.00
2023-04-25T17:57:09.786Z,1.10
2023-04-25T17:59:36.717Z,1.00
2023-04-25T18:02:03.877Z,1.17
2023-04-25T18:04:30.691Z,1.10
2023-04-25T18:06:57.405Z,0.95
2023-04-25T18:09:23.847Z,1.20
2023-04-25T18:11:55.461Z,1.33
2023-04-25T18:14:24.532Z,1.05
2023-04-25T18:16:54.270Z,1.27
2023-04-25T18:19:21.736Z,1.17
2023-04-25T18:21:58.136Z,1.20
2023-04-25T18:24:27.249Z,0.90
2023-04-25T18:26:59.171Z,0.77
2023-04-25T18:29:33.623Z,0.70
2023-04-25T18:32:00.535Z,0.80
2023-04-25T18:34:27.553Z,0.50
2023-04-25T18:36:58.457Z,1.02
2023-04-25T18:39:25.730Z,1.00
2023-04-25T18:41:59.282Z,0.77
2023-04-25T18:44:28.395Z,0.50
2023-04-25T18:46:54.910Z,0.65
2023-04-25T18:49:29.102Z,0.80
2023-04-25T18:51:59.590Z,0.60
2023-04-25T18:54:26.318Z,0.70
2023-04-25T18:56:55.688Z,0.55
2023-04-25T18:59:26.557Z,0.63
2023-04-25T19:01:53.868Z,0.93
2023-04-25T19:04:22.823Z,1.30
2023-04-25T19:06:51.528Z,1.38
2023-04-25T19:09:18.376Z,1.25
2023-04-25T19:11:45.396Z,1.33
2023-04-25T19:14:15.731Z,1.33
2023-04-25T19:16:42.522Z,1.30
2023-04-25T19:19:09.322Z,1.30
2023-04-25T19:21:36.544Z,1.27
2023-04-25T19:24:05.178Z,1.25
2023-04-25T19:26:32.224Z,1.55
2023-04-25T19:29:10.752Z,1.52
2023-04-25T19:31:39.156Z,1.33
2023-04-25T19:34:07.072Z,1.70
2023-04-25T19:36:34.425Z,1.60
2023-04-25T19:39:04.607Z,1.58
2023-04-25T19:41:32.428Z,1.70
2023-04-25T19:44:02.715Z,1.70
2023-04-25T19:46:29.365Z,1.55
2023-04-25T19:48:56.014Z,1.50
2023-04-25T19:51:23.078Z,1.50
2023-04-25T19:53:49.837Z,1.40
2023-04-25T19:56:16.710Z,1.42
2023-04-25T19:58:45.386Z,1.50
2023-04-25T20:01:11.945Z,1.60
2023-04-25T20:03:38.616Z,1.73
2023-04-25T20:06:11.713Z,1.30
2023-04-25T20:08:38.281Z,1.40
2023-04-25T20:11:05.140Z,1.55
2023-04-25T20:13:31.682Z,1.27
2023-04-25T20:16:00.551Z,1.20
2023-04-25T20:18:30.829Z,1.30
2023-04-25T20:20:57.591Z,1.40
2023-04-25T20:23:24.360Z,1.17
2023-04-25T20:25:50.867Z,1.40
2023-04-25T20:28:19.703Z,1.25
2023-04-25T20:30:46.288Z,1.17
2023-04-25T20:33:12.970Z,1.30
2023-04-25T20:35:41.351Z,1.45
2023-04-25T20:38:08.284Z,1.50
2023-04-25T20:40:34.869Z,1.20
2023-04-25T20:43:02.120Z,1.35
2023-04-25T20:45:32.103Z,1.52
2023-04-25T20:47:59.230Z,1.75
2023-04-25T20:50:30.530Z,1.75
2023-04-25T20:52:58.187Z,1.70
2023-04-25T20:55:25.294Z,1.85
2023-04-25T20:57:53.908Z,1.77
2023-04-25T21:00:29.469Z,1.35
2023-04-25T21:03:02.902Z,1.60
2023-04-25T21:05:29.645Z,1.45
2023-04-25T21:07:57.565Z,1.52
2023-04-25T21:10:37.740Z,1.40
2023-04-25T21:13:04.455Z,1.60
2023-04-25T21:15:34.756Z,1.30
2023-04-25T21:18:02.249Z,1.77
2023-04-25T21:20:28.879Z,1.63
2023-04-25T21:22:55.407Z,1.67
2023-04-25T21:25:31.038Z,1.50
2023-04-25T21:28:00.371Z,1.70
2023-04-25T21:30:27.273Z,1.63
2023-04-25T21:32:54.327Z,1.55
2023-04-25T21:35:22.153Z,1.48
2023-04-25T21:37:49.205Z,1.58
2023-04-25T21:40:20.594Z,2.00
2023-04-25T21:42:51.503Z,1.60
2023-04-25T21:45:18.610Z,2.00
2023-04-25T21:47:46.826Z,1.38
2023-04-25T21:50:14.199Z,1.70
2023-04-25T21:52:43.857Z,1.48
2023-04-25T21:55:12.034Z,1.83
2023-04-25T21:57:38.584Z,1.80
2023-04-25T22:00:15.417Z,1.42
2023-04-25T22:02:42.336Z,1.40
2023-04-25T22:05:09.001Z,1.90
2023-04-25T22:07:35.696Z,2.05
2023-04-25T22:10:02.442Z,1.70
2023-04-25T22:12:29.172Z,1.65
2023-04-25T22:14:55.994Z,1.80
2023-04-25T22:17:25.914Z,2.05
2023-04-25T22:19:52.606Z,1.80
2023-04-25T22:22:21.409Z,1.75
2023-04-25T22:24:49.852Z,1.50
2023-04-25T22:27:16.856Z,1.58
2023-04-25T22:29:43.636Z,1.20
2023-04-25T22:32:10.175Z,1.23
2023-04-25T22:34:36.699Z,1.70
2023-04-25T22:37:15.426Z,1.50
2023-04-25T22:39:44.671Z,1.52
2023-04-25T22:42:11.538Z,1.52
2023-04-25T22:44:38.232Z,2.03
2023-04-25T22:47:04.749Z,2.28
2023-04-25T22:49:32.021Z,2.42
2023-04-25T22:51:58.637Z,2.13
2023-04-25T22:54:25.349Z,2.05
2023-04-25T22:56:53.718Z,1.90
2023-04-25T22:59:21.073Z,2.03
2023-04-25T23:01:50.082Z,1.88
2023-04-25T23:04:18.913Z,1.60
2023-04-25T23:06:46.594Z,1.83
2023-04-25T23:09:13.668Z,1.70
2023-04-25T23:11:43.355Z,1.73
2023-04-25T23:14:12.388Z,1.60
2023-04-25T23:16:41.271Z,1.73
2023-04-25T23:19:08.093Z,1.63
2023-04-25T23:21:36.680Z,1.58
2023-04-25T23:24:03.794Z,1.85
2023-04-25T23:26:30.340Z,2.03
2023-04-25T23:28:58.679Z,1.85
2023-04-25T23:31:25.191Z,1.67
2023-04-25T23:33:51.715Z,1.80
2023-04-25T23:36:24.356Z,1.80
2023-04-25T23:38:51.006Z,1.75
2023-04-25T23:41:19.971Z,1.52
2023-04-25T23:43:46.692Z,1.77
2023-04-25T23:46:13.604Z,1.85
2023-04-25T23:48:40.425Z,1.60
2023-04-25T23:51:17.631Z,1.65
2023-04-25T23:53:46.726Z,1.50
2023-04-25T23:56:13.278Z,1.83
2023-04-25T23:58:39.986Z,1.90
